Airfield :
LOGIN :

Register | Disclaimer

   EN    FR    IT 

 










Legend :    VFR   Marginal VFR   IFR   Intensive IFR   Very Intensive IFR
Visi :
Ceiling :
>= 8 km
>= 3000ft
5 to 8 km
1000 to 3000 ft
1500m to 5 km
500 to 1000 ft
800 to 1500m
200 to 500 ft
< 800m
< 200 ft
Symbols :   Thunderstorms  Fog  Heavy snow  Heavy precipitations  Wind > 20 kt
SIGMETs :     Misc.  Thunderstorms  Icing  Turbulence  Mountain Waves  Volcanic Ashes







- Airport Elevation : 49 ft
- IATA code : SEN
- Download approach charts


EGMC - Southend

CURRENT METAR :
  • 180850Z 21008KT 7000 FEW007 10/08 Q1015

EXPIRED METARs :
  • 180820Z 20010KT 6000 SCT006 08/06 Q1015
  • 180750Z 20011KT 6000 BKN008 08/06 Q1015
  • 180720Z 19009KT 9000 FEW015 07/06 Q1015
  • 180650Z 19007KT CAVOK 07/06 Q1015
  • 180620Z 19006KT CAVOK 07/06 Q1015

TAF TAF EGMC
Valid from the 18 at 09:00 until the 18 at 18:00 UTC


180756Z 1809/1818 20010KT 9999 SCT015
PROB30
TEMPO 1809/1810 5000 BR BKN006
TEMPO 1812/1815 7000 SHRA BKN014
No reported NOTAMs for that airfield.



MET'MAP, your aeronautical weather chart ! - Copyright ORBIFLY December 2007 - Disclaimer

ORBIFLY MET'MAP TEAM :

Programming & Development : Alexandra Zaïnal
Concept & Development : Baudouin d'Aumeries
Co-Development & Prog : Marc-Olivier Méhu
Technical & hardware support : Manuel Goepfert

Contact : metmap@orbifly.com




SOURCES & CREDITS :

   NOAA